Time;durP1;ratioP1;P1;durP2;ratioP2;P2;SDS_P1;SDS_P2;PMS_P1;PMS_P2;Temp;Humidity;BMP_temperature;BMP_pressure;BME280_temperature;BME280_humidity;BME280_pressure;Samples;Min_cycle;Max_cycle;Signal;HPM_P1;HPM_P2
2023/10/09 00:02:58;;;;;;;0.00;0.00;;;15.30;86.80;;;;;;5029489;28;20041;-76
2023/10/09 00:05:27;;;;;;;0.10;0.10;;;15.30;86.70;;;;;;5028434;28;20498;-76
2023/10/09 00:07:56;;;;;;;0.00;0.00;;;15.30;86.80;;;;;;5028953;28;20056;-76
2023/10/09 00:10:21;;;;;;;0.00;0.00;;;15.30;87.00;;;;;;5030326;28;20502;-76
2023/10/09 00:12:49;;;;;;;0.05;0.05;;;15.30;87.10;;;;;;5029503;28;20044;-76
2023/10/09 00:15:17;;;;;;;0.00;0.00;;;15.30;87.20;;;;;;5029627;28;20068;-77
2023/10/09 00:17:46;;;;;;;7.13;1.45;;;15.30;87.40;;;;;;5029900;28;20045;-76
2023/10/09 00:20:20;;;;;;;0.00;0.00;;;15.30;87.30;;;;;;5030143;28;20052;-76
2023/10/09 00:22:46;;;;;;;0.03;0.03;;;15.30;87.30;;;;;;5028135;28;20053;-76
2023/10/09 00:25:12;;;;;;;0.00;0.00;;;15.30;87.70;;;;;;5029595;28;20124;-76
2023/10/09 00:27:48;;;;;;;0.00;0.00;;;15.20;87.80;;;;;;5028677;28;20045;-76
2023/10/09 00:30:17;;;;;;;0.00;0.00;;;15.20;87.80;;;;;;5030131;28;20161;-76
2023/10/09 00:32:58;;;;;;;0.00;0.00;;;15.20;87.60;;;;;;5012347;28;20179;-76
2023/10/09 00:35:37;;;;;;;0.00;0.00;;;15.30;87.70;;;;;;5028733;28;20463;-76
2023/10/09 00:38:08;;;;;;;0.00;0.00;;;15.30;87.80;;;;;;5029804;28;20451;-76
2023/10/09 00:40:36;;;;;;;0.00;0.00;;;15.30;87.80;;;;;;5029905;28;20049;-76
2023/10/09 00:43:10;;;;;;;0.00;0.00;;;15.30;87.60;;;;;;5029391;28;20569;-76
2023/10/09 00:45:39;;;;;;;0.00;0.00;;;15.30;87.90;;;;;;5028256;28;20037;-76
2023/10/09 00:48:08;;;;;;;0.00;0.00;;;15.40;87.90;;;;;;5029388;28;20048;-76
2023/10/09 00:50:36;;;;;;;0.00;0.00;;;15.40;87.90;;;;;;5027882;28;20054;-76
2023/10/09 00:53:09;;;;;;;0.00;0.00;;;15.40;88.00;;;;;;5028724;28;20033;-75
2023/10/09 00:58:12;;;;;;;0.00;0.00;;;15.40;88.10;;;;;;5029243;28;20061;-74
2023/10/09 01:03:19;;;;;;;0.00;0.00;;;15.50;88.40;;;;;;5027943;28;20042;-75
2023/10/09 01:11:22;;;;;;;0.00;0.00;;;15.50;88.30;;;;;;5029439;28;20061;-75
2023/10/09 01:16:22;;;;;;;0.00;0.00;;;15.50;88.30;;;;;;5027144;28;20019;-75
2023/10/09 01:18:59;;;;;;;0.00;0.00;;;15.50;88.20;;;;;;5027897;28;20588;-74
2023/10/09 01:21:26;;;;;;;0.35;0.35;;;15.50;88.30;;;;;;5027615;28;20053;-75
2023/10/09 01:24:03;;;;;;;0.00;0.00;;;15.50;88.50;;;;;;5028501;28;20053;-74
2023/10/09 01:26:39;;;;;;;0.00;0.00;;;15.60;88.70;;;;;;5026908;28;20057;-75
2023/10/09 01:29:21;;;;;;;0.20;0.20;;;15.50;89.10;;;;;;5027809;28;20045;-75
2023/10/09 01:32:00;;;;;;;0.10;0.10;;;15.50;89.10;;;;;;5016587;28;20049;-74
2023/10/09 01:34:49;;;;;;;0.00;0.00;;;15.60;89.90;;;;;;5028771;28;20041;-75
2023/10/09 01:37:26;;;;;;;0.20;0.20;;;15.50;89.70;;;;;;5014656;28;20107;-75
2023/10/09 01:39:52;;;;;;;0.00;0.00;;;15.60;89.70;;;;;;5027638;28;20056;-75
2023/10/09 01:42:33;;;;;;;0.25;0.25;;;15.60;89.80;;;;;;5028373;28;20049;-75
2023/10/09 01:45:10;;;;;;;0.20;0.20;;;15.60;90.40;;;;;;5026960;28;20115;-75
2023/10/09 01:47:37;;;;;;;1.95;0.95;;;15.60;90.30;;;;;;5026136;28;20053;-75
2023/10/09 01:50:05;;;;;;;0.57;0.52;;;15.60;90.90;;;;;;5028404;28;20038;-75
2023/10/09 01:52:30;;;;;;;1.15;0.63;;;15.70;91.20;;;;;;5028357;28;20406;-75
2023/10/09 01:55:05;;;;;;;0.15;0.15;;;15.60;91.10;;;;;;5028452;28;20049;-75
2023/10/09 01:57:31;;;;;;;0.45;0.45;;;15.70;91.40;;;;;;5028231;28;20120;-75
2023/10/09 01:59:57;;;;;;;0.47;0.47;;;15.60;91.30;;;;;;5027572;28;20125;-76
2023/10/09 02:02:26;;;;;;;0.10;0.10;;;15.60;91.40;;;;;;5028047;28;20116;-75
2023/10/09 02:05:24;;;;;;;0.00;0.00;;;15.70;91.20;;;;;;5025769;28;20051;-75
2023/10/09 02:07:53;;;;;;;0.00;0.00;;;15.70;91.00;;;;;;5027036;28;20084;-76
2023/10/09 02:12:57;;;;;;;1.75;1.65;;;15.70;91.50;;;;;;5028196;28;20057;-75
2023/10/09 02:18:39;;;;;;;0.00;0.00;;;15.70;91.90;;;;;;5026794;28;20090;-76
2023/10/09 02:23:45;;;;;;;0.40;0.40;;;15.70;92.00;;;;;;5028093;28;20052;-76
2023/10/09 02:26:19;;;;;;;0.20;0.20;;;15.70;92.10;;;;;;5027004;28;20473;-75
2023/10/09 02:28:52;;;;;;;2.67;2.35;;;15.70;92.00;;;;;;5028206;28;20565;-74
2023/10/09 02:31:22;;;;;;;0.25;0.25;;;15.70;92.30;;;;;;5027939;28;20048;-75
2023/10/09 02:33:50;;;;;;;0.22;0.22;;;15.70;92.20;;;;;;5026041;28;20064;-74
2023/10/09 02:36:16;;;;;;;0.60;0.60;;;15.60;92.10;;;;;;5027658;28;20045;-74
2023/10/09 02:38:43;;;;;;;0.20;0.20;;;15.70;92.20;;;;;;5028613;28;20041;-74
2023/10/09 02:43:46;;;;;;;0.00;0.00;;;15.70;92.30;;;;;;5031401;28;20045;-74
2023/10/09 02:46:20;;;;;;;1.48;1.10;;;15.70;92.00;;;;;;5030865;28;20103;-74
2023/10/09 02:48:53;;;;;;;0.40;0.20;;;15.70;92.10;;;;;;5031523;28;20073;-74
2023/10/09 02:53:52;;;;;;;0.20;0.20;;;15.70;92.20;;;;;;5030193;28;20053;-74
2023/10/09 02:56:23;;;;;;;0.47;0.47;;;15.80;92.50;;;;;;5030705;28;20045;-74
2023/10/09 02:58:52;;;;;;;0.88;0.88;;;15.80;92.70;;;;;;5031235;28;20103;-74
2023/10/09 03:01:17;;;;;;;0.50;0.50;;;15.70;92.70;;;;;;5031142;28;20505;-74
2023/10/09 03:03:46;;;;;;;0.00;0.00;;;15.70;92.70;;;;;;5031473;28;20083;-74
2023/10/09 03:06:30;;;;;;;0.77;0.52;;;15.80;92.70;;;;;;5034068;28;20080;-74
2023/10/09 03:08:57;;;;;;;0.68;0.40;;;15.80;92.80;;;;;;5051716;28;20052;-74
2023/10/09 03:11:23;;;;;;;0.10;0.10;;;15.80;92.80;;;;;;5033826;28;20041;-74
2023/10/09 03:13:49;;;;;;;0.10;0.10;;;15.80;92.90;;;;;;5031297;28;20128;-74
2023/10/09 03:16:21;;;;;;;0.00;0.00;;;15.80;92.90;;;;;;5029873;28;20054;-74
2023/10/09 03:18:49;;;;;;;0.52;0.52;;;15.80;92.80;;;;;;5031451;28;20046;-74
2023/10/09 03:21:14;;;;;;;0.10;0.10;;;15.90;92.90;;;;;;5030316;28;20554;-74
2023/10/09 03:23:49;;;;;;;0.00;0.00;;;15.80;92.80;;;;;;5030315;28;20122;-74
2023/10/09 03:26:20;;;;;;;0.10;0.10;;;15.90;92.70;;;;;;5030959;28;20441;-73
2023/10/09 03:28:47;;;;;;;0.00;0.00;;;15.90;92.70;;;;;;5031308;28;20132;-73
2023/10/09 03:31:13;;;;;;;0.10;0.10;;;16.00;92.70;;;;;;5033234;28;20525;-73
2023/10/09 03:33:39;;;;;;;1.27;1.17;;;16.00;92.60;;;;;;5028786;28;20048;-74
2023/10/09 03:36:16;;;;;;;0.00;0.00;;;16.10;92.50;;;;;;5029777;28;20049;-74
2023/10/09 03:38:42;;;;;;;0.20;0.20;;;16.10;92.50;;;;;;5030362;28;20049;-73
2023/10/09 03:41:12;;;;;;;0.00;0.00;;;16.10;92.30;;;;;;5030496;28;20041;-74
2023/10/09 03:43:41;;;;;;;0.25;0.25;;;16.20;92.10;;;;;;5030037;28;20041;-74
2023/10/09 03:46:26;;;;;;;0.00;0.00;;;16.30;91.90;;;;;;5031083;28;20048;-74
2023/10/09 03:48:57;;;;;;;0.00;0.00;;;16.40;91.70;;;;;;5028525;28;20442;-74
2023/10/09 03:51:23;;;;;;;0.43;0.43;;;16.50;91.40;;;;;;5028935;28;21043;-74
2023/10/09 03:53:50;;;;;;;0.35;0.35;;;16.50;91.20;;;;;;5028637;28;20107;-74
2023/10/09 03:56:17;;;;;;;0.40;0.40;;;16.60;91.00;;;;;;5028043;28;20044;-74
2023/10/09 03:58:48;;;;;;;3.30;1.75;;;16.60;90.80;;;;;;5029715;28;20406;-74
2023/10/09 04:01:28;;;;;;;1.25;0.80;;;16.60;90.70;;;;;;5029288;28;20565;-74
2023/10/09 04:04:01;;;;;;;0.00;0.00;;;16.70;90.50;;;;;;5029733;28;20084;-74
2023/10/09 04:06:37;;;;;;;0.10;0.10;;;16.60;90.40;;;;;;5028936;28;20049;-73
2023/10/09 04:11:46;;;;;;;0.52;0.32;;;16.70;90.20;;;;;;5028530;28;20188;-74
2023/10/09 04:14:26;;;;;;;0.15;0.15;;;16.80;90.20;;;;;;5023798;28;20060;-74
2023/10/09 04:16:52;;;;;;;0.00;0.00;;;16.80;90.10;;;;;;5029387;28;20055;-77
2023/10/09 04:19:22;;;;;;;0.38;0.38;;;16.80;90.00;;;;;;5028856;28;20057;-72
2023/10/09 04:21:55;;;;;;;0.35;0.35;;;16.80;90.00;;;;;;5017098;28;20919;-73
2023/10/09 04:26:46;;;;;;;0.17;0.17;;;16.80;90.00;;;;;;5016656;28;20053;-73
2023/10/09 04:29:26;;;;;;;0.00;0.00;;;16.90;90.10;;;;;;5015839;28;20092;-73
2023/10/09 04:31:53;;;;;;;0.00;0.00;;;16.90;90.30;;;;;;5022695;28;20045;-73
2023/10/09 04:34:22;;;;;;;1.08;0.80;;;16.90;90.20;;;;;;5019936;28;20092;-72
2023/10/09 04:36:56;;;;;;;0.00;0.00;;;16.90;90.30;;;;;;5021651;28;20045;-73
2023/10/09 04:47:36;;;;;;;0.00;0.00;;;16.80;90.60;;;;;;5019378;28;20048;-72
2023/10/09 04:50:11;;;;;;;0.30;0.30;;;16.80;90.50;;;;;;5020301;28;20049;-72
2023/10/09 05:03:11;;;;;;;0.00;0.00;;;16.70;91.10;;;;;;4988666;28;20061;-73
2023/10/09 05:08:19;;;;;;;0.00;0.00;;;16.70;91.20;;;;;;5020514;28;20405;-73
2023/10/09 05:18:56;;;;;;;0.30;0.30;;;16.70;91.30;;;;;;5017945;28;20413;-73
2023/10/09 05:29:19;;;;;;;0.73;0.22;;;16.60;91.90;;;;;;5022704;28;20060;-73
2023/10/09 05:34:34;;;;;;;0.55;0.55;;;16.70;91.90;;;;;;5026579;28;20049;-71
2023/10/09 05:37:25;;;;;;;0.17;0.17;;;16.60;91.80;;;;;;5025084;28;20514;-74
2023/10/09 05:47:57;;;;;;;0.00;0.00;;;16.70;91.80;;;;;;5018260;28;20037;-74
2023/10/09 06:19:12;;;;;;;0.30;0.30;;;16.60;92.00;;;;;;5020380;28;20045;-71
2023/10/09 06:24:18;;;;;;;0.00;0.00;;;16.60;92.10;;;;;;5028716;28;20084;-68
2023/10/09 06:27:12;;;;;;;2.92;1.45;;;16.60;92.10;;;;;;5020219;28;20045;-70
2023/10/09 06:29:50;;;;;;;0.20;0.20;;;16.70;92.00;;;;;;5028300;28;20057;-69
2023/10/09 06:34:51;;;;;;;0.10;0.10;;;16.60;92.00;;;;;;5029289;28;20688;-69
2023/10/09 06:39:50;;;;;;;0.00;0.00;;;16.60;92.00;;;;;;5027104;28;20135;-70
2023/10/09 06:42:43;;;;;;;0.15;0.15;;;16.70;92.00;;;;;;5029328;28;20065;-70
2023/10/09 06:47:53;;;;;;;0.00;0.00;;;16.60;91.90;;;;;;5028382;28;20053;-70
2023/10/09 06:52:57;;;;;;;0.55;0.50;;;16.60;91.80;;;;;;5027259;28;20034;-70
2023/10/09 06:55:36;;;;;;;0.15;0.13;;;16.60;91.90;;;;;;5027238;28;20128;-69
2023/10/09 06:58:09;;;;;;;1.38;1.00;;;16.60;91.90;;;;;;5027435;28;20433;-71
2023/10/09 07:01:19;;;;;;;0.00;0.00;;;16.60;91.90;;;;;;5028414;28;20120;-69
2023/10/09 07:03:33;;;;;;;8.07;1.95;;;16.60;91.80;;;;;;5027292;28;20084;-70
2023/10/09 07:14:32;;;;;;;0.15;0.15;;;16.60;91.90;;;;;;5028279;28;20041;-70
2023/10/09 07:17:04;;;;;;;0.63;0.52;;;16.60;91.90;;;;;;5029067;28;20095;-69
2023/10/09 07:22:16;;;;;;;0.00;0.00;;;16.60;92.00;;;;;;5025327;28;20453;-69
2023/10/09 07:24:49;;;;;;;0.00;0.00;;;16.60;92.10;;;;;;5029039;28;20058;-70
2023/10/09 07:27:43;;;;;;;0.10;0.10;;;16.60;92.10;;;;;;5024626;28;20068;-70
2023/10/09 07:30:35;;;;;;;0.40;0.40;;;16.60;92.10;;;;;;5025821;28;20056;-70
2023/10/09 07:32:54;;;;;;;0.00;0.00;;;16.60;92.20;;;;;;5029644;28;20052;-70
2023/10/09 07:38:28;;;;;;;0.08;0.08;;;16.60;92.20;;;;;;5014283;28;20103;-70
2023/10/09 07:43:39;;;;;;;0.73;0.73;;;16.60;92.40;;;;;;5030142;28;20061;-70
2023/10/09 07:48:55;;;;;;;0.63;0.63;;;16.50;92.70;;;;;;5029041;28;20049;-71
2023/10/09 07:51:23;;;;;;;0.10;0.10;;;16.60;92.60;;;;;;5028132;28;20056;-70
2023/10/09 07:54:06;;;;;;;0.75;0.75;;;16.60;92.70;;;;;;5030623;28;20049;-71
2023/10/09 07:56:45;;;;;;;0.08;0.08;;;16.60;92.70;;;;;;5029056;28;20055;-70
2023/10/09 07:59:11;;;;;;;0.03;0.03;;;16.60;92.70;;;;;;5029747;28;20080;-70
2023/10/09 08:02:02;;;;;;;0.00;0.00;;;16.60;92.60;;;;;;5029327;28;20057;-69
2023/10/09 08:07:08;;;;;;;0.08;0.08;;;16.60;92.60;;;;;;5029181;28;20581;-69
2023/10/09 08:09:47;;;;;;;0.55;0.55;;;16.60;92.60;;;;;;5029291;28;20124;-69
2023/10/09 08:16:17;;;;;;;0.05;0.05;;;16.70;92.50;;;;;;5027283;28;20053;-69
2023/10/09 08:18:03;;;;;;;0.30;0.30;;;16.70;92.60;;;;;;5014039;28;20495;-69
2023/10/09 08:23:28;;;;;;;0.20;0.20;;;16.70;92.60;;;;;;5028238;28;20054;-70
2023/10/09 08:26:14;;;;;;;0.00;0.00;;;16.70;92.60;;;;;;5025808;28;20537;-70
2023/10/09 08:28:42;;;;;;;0.32;0.22;;;16.80;92.70;;;;;;5027877;28;20037;-70
2023/10/09 08:31:19;;;;;;;0.00;0.00;;;16.80;92.50;;;;;;5029256;28;20046;-70
2023/10/09 08:33:57;;;;;;;0.10;0.10;;;16.80;92.50;;;;;;5028422;28;20052;-70
2023/10/09 08:36:28;;;;;;;0.00;0.00;;;16.80;92.50;;;;;;5033587;28;20167;-71
2023/10/09 08:39:08;;;;;;;0.55;0.55;;;16.90;92.40;;;;;;5028298;28;20092;-70
2023/10/09 08:41:33;;;;;;;10.30;0.60;;;16.90;92.40;;;;;;5028747;28;20060;-70
2023/10/09 08:44:00;;;;;;;2.15;2.05;;;16.90;92.40;;;;;;5028778;28;20045;-70
2023/10/09 08:46:27;;;;;;;1.55;0.95;;;16.90;92.40;;;;;;5028445;28;20057;-69
2023/10/09 08:48:58;;;;;;;0.52;0.52;;;16.90;92.40;;;;;;5029053;28;20564;-70
2023/10/09 08:51:26;;;;;;;0.00;0.00;;;16.90;92.50;;;;;;5042216;28;20049;-70
2023/10/09 08:53:52;;;;;;;2.08;1.52;;;16.90;92.60;;;;;;5048085;28;20088;-69
2023/10/09 08:56:22;;;;;;;2.13;1.55;;;16.90;92.70;;;;;;5062925;28;20048;-70
2023/10/09 08:58:59;;;;;;;0.43;0.43;;;16.90;93.00;;;;;;5030325;28;21344;-69
2023/10/09 09:01:25;;;;;;;0.00;0.00;;;16.80;93.00;;;;;;5031611;28;20398;-69
2023/10/09 09:03:55;;;;;;;0.30;0.30;;;16.90;92.90;;;;;;5029290;28;20476;-70
2023/10/09 09:06:23;;;;;;;1.00;0.95;;;16.90;92.80;;;;;;5032499;28;20047;-69
2023/10/09 09:08:49;;;;;;;0.40;0.40;;;17.00;92.80;;;;;;5018654;28;20103;-70
2023/10/09 09:11:22;;;;;;;0.88;0.88;;;17.00;92.70;;;;;;5029192;28;20041;-65
2023/10/09 09:14:07;;;;;;;0.40;0.40;;;17.00;92.70;;;;;;5027689;28;20042;-70
2023/10/09 09:16:36;;;;;;;0.00;0.00;;;17.10;92.80;;;;;;5028671;28;20099;-67
2023/10/09 09:19:04;;;;;;;0.00;0.00;;;17.10;92.70;;;;;;5036516;28;20697;-68
2023/10/09 09:21:40;;;;;;;0.00;0.00;;;17.10;92.70;;;;;;5028632;28;20132;-69
2023/10/09 09:27:00;;;;;;;0.00;0.00;;;17.10;92.60;;;;;;5028311;28;20433;-68
2023/10/09 09:29:38;;;;;;;0.00;0.00;;;17.10;92.60;;;;;;5026929;28;20053;-68
2023/10/09 09:32:18;;;;;;;0.00;0.00;;;17.10;92.40;;;;;;5028932;28;20064;-68
2023/10/09 09:34:46;;;;;;;0.22;0.22;;;17.10;92.60;;;;;;5026959;28;20414;-67
2023/10/09 09:37:19;;;;;;;0.00;0.00;;;17.20;92.50;;;;;;5027728;28;20046;-68
2023/10/09 09:39:51;;;;;;;0.03;0.03;;;17.10;92.50;;;;;;5028134;28;20063;-68
2023/10/09 09:42:25;;;;;;;0.63;0.63;;;17.10;92.40;;;;;;5027790;28;20402;-68
2023/10/09 09:44:51;;;;;;;0.43;0.43;;;17.20;92.40;;;;;;5024007;28;20041;-68
2023/10/09 09:47:25;;;;;;;0.30;0.30;;;17.20;92.10;;;;;;5028553;28;20044;-68
2023/10/09 09:50:00;;;;;;;0.20;0.08;;;17.30;92.20;;;;;;5023117;28;20064;-68
2023/10/09 09:52:29;;;;;;;0.28;0.28;;;17.30;92.10;;;;;;5030892;28;20047;-69
2023/10/09 09:54:54;;;;;;;0.85;0.65;;;17.40;92.10;;;;;;5031771;28;20041;-68
2023/10/09 09:57:26;;;;;;;0.00;0.00;;;17.40;92.20;;;;;;5031227;28;20513;-69
2023/10/09 09:59:55;;;;;;;0.20;0.20;;;17.40;92.10;;;;;;5029994;28;20494;-70
2023/10/09 10:02:33;;;;;;;0.00;0.00;;;17.40;91.70;;;;;;5029695;28;20053;-69
2023/10/09 10:05:03;;;;;;;0.38;0.38;;;17.40;91.80;;;;;;5014450;28;20033;-69
2023/10/09 10:07:41;;;;;;;1.17;1.08;;;17.50;91.80;;;;;;5030362;28;20073;-69
2023/10/09 10:10:37;;;;;;;0.00;0.00;;;17.40;91.80;;;;;;5027295;28;20077;-70
2023/10/09 10:13:04;;;;;;;0.00;0.00;;;17.40;91.40;;;;;;5026973;28;20038;-70
2023/10/09 10:16:11;;;;;;;2.38;1.60;;;17.50;91.40;;;;;;5030443;28;20041;-70
2023/10/09 10:18:59;;;;;;;3.70;0.68;;;17.50;91.10;;;;;;5029210;28;20417;-69
2023/10/09 10:24:11;;;;;;;1.95;1.20;;;17.50;91.20;;;;;;5031066;28;20967;-69
2023/10/09 10:26:37;;;;;;;0.28;0.28;;;17.40;91.30;;;;;;5027932;28;20505;-70
2023/10/09 10:29:22;;;;;;;12.25;0.82;;;17.50;91.30;;;;;;5030290;28;20044;-70
2023/10/09 10:32:00;;;;;;;0.20;0.20;;;17.40;91.00;;;;;;5028185;28;20047;-70
2023/10/09 10:34:26;;;;;;;0.00;0.00;;;17.40;91.40;;;;;;5030390;28;20045;-70
2023/10/09 10:36:58;;;;;;;0.00;0.00;;;17.40;91.50;;;;;;5031776;28;20682;-70
2023/10/09 10:39:42;;;;;;;0.00;0.00;;;17.30;91.40;;;;;;5030630;28;20040;-67
2023/10/09 10:42:09;;;;;;;0.45;0.45;;;17.40;91.40;;;;;;5022518;28;20471;-69
2023/10/09 10:44:53;;;;;;;0.65;0.65;;;17.40;91.60;;;;;;5017726;28;20046;-68
2023/10/09 10:47:32;;;;;;;0.85;0.57;;;17.50;91.40;;;;;;5010524;28;20676;-70
2023/10/09 10:49:58;;;;;;;0.30;0.30;;;17.50;91.30;;;;;;5010318;28;20046;-70
2023/10/09 10:52:41;;;;;;;0.00;0.00;;;17.50;91.30;;;;;;5011818;28;20430;-70
2023/10/09 10:58:23;;;;;;;3.30;2.08;;;17.50;91.30;;;;;;5012217;28;20085;-69
2023/10/09 11:06:14;;;;;;;0.25;0.25;;;17.80;91.00;;;;;;5011495;28;20060;-69
2023/10/09 11:08:54;;;;;;;0.00;0.00;;;17.90;90.90;;;;;;5011153;28;20056;-69
2023/10/09 11:11:20;;;;;;;0.05;0.05;;;18.00;90.90;;;;;;5011165;28;20046;-69
2023/10/09 11:13:58;;;;;;;0.08;0.08;;;18.00;90.90;;;;;;5011405;28;20052;-69
2023/10/09 11:16:47;;;;;;;0.05;0.05;;;18.00;90.40;;;;;;5011055;28;20045;-69
2023/10/09 11:21:58;;;;;;;0.03;0.03;;;17.90;90.20;;;;;;5010983;28;20054;-69
2023/10/09 11:24:27;;;;;;;0.00;0.00;;;17.80;90.20;;;;;;5019576;28;20057;-68
2023/10/09 11:26:55;;;;;;;0.22;0.22;;;17.90;90.00;;;;;;5029551;28;20076;-69
2023/10/09 11:32:18;;;;;;;0.55;0.55;;;17.80;89.80;;;;;;5030539;28;20053;-68
2023/10/09 11:34:54;;;;;;;0.15;0.15;;;17.80;89.70;;;;;;5029645;28;20528;-69
2023/10/09 11:39:56;;;;;;;0.80;0.73;;;17.80;90.10;;;;;;5030640;28;20058;-69
2023/10/09 11:42:49;;;;;;;0.00;0.00;;;17.70;90.10;;;;;;5030249;28;20172;-68
2023/10/09 11:45:29;;;;;;;0.00;0.00;;;17.70;89.90;;;;;;5030681;28;20060;-69
2023/10/09 11:49:25;;;;;;;2.95;1.20;;;17.70;90.00;;;;;;5029828;28;20144;-68
2023/10/09 11:51:21;;;;;;;0.20;0.15;;;17.70;89.70;;;;;;5030366;28;20060;-68
2023/10/09 11:53:58;;;;;;;1.55;1.38;;;17.70;89.90;;;;;;5030104;28;20041;-69
2023/10/09 11:56:27;;;;;;;0.00;0.00;;;17.70;90.00;;;;;;5011739;28;20085;-69
2023/10/09 11:58:53;;;;;;;0.40;0.38;;;17.60;89.80;;;;;;5029577;28;20128;-69
2023/10/09 12:01:26;;;;;;;0.05;0.05;;;17.60;89.80;;;;;;5030332;28;20056;-69
2023/10/09 12:03:53;;;;;;;0.00;0.00;;;17.80;89.90;;;;;;5030439;28;20049;-69
2023/10/09 12:06:23;;;;;;;1.17;0.63;;;17.70;89.80;;;;;;5029533;28;20099;-69
2023/10/09 12:08:49;;;;;;;0.00;0.00;;;17.70;89.80;;;;;;5029586;28;20090;-69
2023/10/09 12:11:28;;;;;;;2.22;1.95;;;17.80;89.60;;;;;;5029357;28;20041;-69
2023/10/09 12:13:57;;;;;;;0.55;0.55;;;17.80;89.50;;;;;;5029203;28;20099;-69
2023/10/09 12:16:27;;;;;;;0.80;0.80;;;17.80;89.50;;;;;;5030060;28;20132;-69
2023/10/09 12:18:56;;;;;;;0.05;0.05;;;17.80;89.50;;;;;;5029805;28;20041;-69
2023/10/09 12:21:23;;;;;;;0.22;0.22;;;17.80;89.30;;;;;;5029067;28;20136;-70
2023/10/09 12:23:49;;;;;;;0.00;0.00;;;17.80;89.30;;;;;;5029369;28;20053;-70
2023/10/09 12:26:14;;;;;;;0.10;0.10;;;17.90;89.40;;;;;;5029979;28;20064;-69
2023/10/09 12:28:47;;;;;;;0.00;0.00;;;18.00;89.50;;;;;;5029417;28;20648;-69
2023/10/09 12:31:19;;;;;;;0.00;0.00;;;18.00;88.60;;;;;;5024646;28;20048;-71
2023/10/09 12:33:47;;;;;;;2.30;1.67;;;18.00;88.30;;;;;;5029275;28;20121;-70
2023/10/09 12:36:22;;;;;;;0.00;0.00;;;18.00;88.60;;;;;;5029591;28;20598;-69
2023/10/09 12:38:58;;;;;;;0.00;0.00;;;18.00;88.40;;;;;;5029008;28;20497;-70
2023/10/09 12:41:28;;;;;;;0.00;0.00;;;18.00;88.30;;;;;;5027130;28;20045;-70
2023/10/09 12:43:59;;;;;;;5.15;1.55;;;18.10;88.40;;;;;;5034127;28;20561;-70
2023/10/09 12:46:25;;;;;;;1.92;0.85;;;18.10;87.90;;;;;;5021377;28;20087;-70
2023/10/09 12:48:54;;;;;;;0.00;0.00;;;18.00;88.10;;;;;;5042207;28;20045;-69
2023/10/09 12:51:25;;;;;;;0.00;0.00;;;18.00;88.30;;;;;;5032173;28;20129;-70
2023/10/09 12:53:56;;;;;;;0.00;0.00;;;18.00;88.40;;;;;;5040300;28;20099;-70
2023/10/09 12:56:32;;;;;;;0.00;0.00;;;18.00;88.30;;;;;;5028859;28;20053;-69
2023/10/09 12:59:00;;;;;;;2.05;0.35;;;18.00;88.40;;;;;;5028280;28;20048;-70
2023/10/09 13:01:31;;;;;;;0.00;0.00;;;18.00;88.10;;;;;;5028677;28;20048;-70
2023/10/09 13:03:59;;;;;;;0.03;0.03;;;17.90;88.30;;;;;;5027844;28;20508;-68
2023/10/09 13:06:27;;;;;;;0.00;0.00;;;17.90;88.30;;;;;;5028744;28;20088;-69
2023/10/09 13:08:59;;;;;;;1.45;1.20;;;17.90;88.40;;;;;;5026909;28;20164;-69
2023/10/09 13:11:25;;;;;;;0.40;0.40;;;18.00;88.50;;;;;;5029726;28;20124;-69
2023/10/09 13:13:51;;;;;;;1.02;0.75;;;17.90;88.60;;;;;;5028735;28;20080;-69
2023/10/09 13:16:24;;;;;;;1.17;0.63;;;18.00;88.90;;;;;;5028551;28;20373;-70
2023/10/09 13:18:51;;;;;;;0.00;0.00;;;18.10;88.80;;;;;;5028148;28;20132;-70
2023/10/09 13:21:31;;;;;;;0.00;0.00;;;18.20;88.40;;;;;;5027768;28;20045;-70
2023/10/09 13:23:58;;;;;;;1.10;1.08;;;18.20;88.10;;;;;;5027366;28;20057;-70
2023/10/09 13:26:25;;;;;;;0.00;0.00;;;18.20;87.70;;;;;;5027756;28;20506;-70
2023/10/09 13:29:01;;;;;;;0.10;0.10;;;18.30;87.50;;;;;;5027217;28;20057;-70
2023/10/09 13:31:27;;;;;;;0.00;0.00;;;18.20;87.40;;;;;;5022836;28;20045;-70
2023/10/09 13:33:56;;;;;;;0.00;0.00;;;18.30;87.30;;;;;;5027618;28;20383;-69
2023/10/09 13:36:34;;;;;;;0.00;0.00;;;18.30;87.60;;;;;;5025503;28;21028;-70
2023/10/09 13:39:21;;;;;;;0.52;0.52;;;18.20;87.70;;;;;;5025671;28;20033;-70
2023/10/09 13:41:49;;;;;;;2.05;1.10;;;18.10;86.90;;;;;;5027505;28;20045;-71
2023/10/09 13:44:18;;;;;;;0.00;0.00;;;18.10;86.70;;;;;;5028098;28;20498;-70
2023/10/09 13:46:44;;;;;;;0.00;0.00;;;18.00;87.10;;;;;;5010139;28;20091;-71
2023/10/09 13:49:13;;;;;;;0.00;0.00;;;18.00;87.20;;;;;;5026847;28;20054;-71
2023/10/09 13:51:46;;;;;;;0.30;0.30;;;18.00;87.40;;;;;;5026019;28;20136;-71
2023/10/09 13:57:04;;;;;;;0.90;0.90;;;18.00;87.00;;;;;;5026530;28;20046;-71
2023/10/09 13:59:43;;;;;;;0.22;0.22;;;17.90;87.10;;;;;;5027313;28;20038;-70
2023/10/09 14:02:09;;;;;;;0.00;0.00;;;17.80;87.30;;;;;;5026377;28;20077;-70
2023/10/09 14:04:35;;;;;;;0.00;0.00;;;17.70;87.50;;;;;;5026702;28;20387;-69
2023/10/09 14:07:05;;;;;;;0.22;0.22;;;17.70;87.70;;;;;;5028727;28;20038;-69
2023/10/09 14:09:31;;;;;;;3.90;1.40;;;17.60;87.90;;;;;;5027871;28;20056;-69
2023/10/09 14:12:07;;;;;;;0.00;0.00;;;17.60;87.80;;;;;;5028501;28;20459;-69
2023/10/09 14:14:38;;;;;;;0.15;0.15;;;17.70;87.60;;;;;;5028136;28;20075;-69
2023/10/09 14:17:13;;;;;;;0.00;0.00;;;17.60;87.50;;;;;;5027200;28;20124;-68
2023/10/09 14:19:49;;;;;;;0.00;0.00;;;17.60;87.80;;;;;;5026438;28;20048;-69
2023/10/09 14:22:21;;;;;;;0.00;0.00;;;17.60;87.90;;;;;;5020467;28;20103;-69
2023/10/09 14:24:55;;;;;;;0.00;0.00;;;17.60;87.80;;;;;;5025658;28;20044;-69
2023/10/09 14:27:25;;;;;;;0.00;0.00;;;17.60;87.60;;;;;;5024215;28;20072;-69
2023/10/09 14:29:55;;;;;;;0.47;0.47;;;17.50;87.60;;;;;;5027388;28;20041;-68
2023/10/09 14:32:28;;;;;;;0.17;0.17;;;17.50;87.80;;;;;;5027611;28;20049;-69
2023/10/09 14:35:00;;;;;;;0.00;0.00;;;17.30;87.40;;;;;;5030053;28;20049;-68
2023/10/09 14:37:26;;;;;;;0.00;0.00;;;17.40;87.50;;;;;;5010525;28;20057;-69
2023/10/09 14:39:52;;;;;;;0.00;0.00;;;17.40;87.10;;;;;;5010414;28;20038;-69
2023/10/09 14:42:20;;;;;;;1.45;1.10;;;17.30;87.20;;;;;;5010687;28;20050;-69
2023/10/09 14:44:46;;;;;;;0.30;0.30;;;17.40;87.10;;;;;;5012357;28;20103;-69
2023/10/09 14:47:14;;;;;;;1.48;1.38;;;17.30;87.30;;;;;;5012039;28;20491;-69
2023/10/09 14:49:46;;;;;;;0.00;0.00;;;17.30;87.50;;;;;;5012491;28;20046;-69
2023/10/09 14:52:16;;;;;;;0.20;0.20;;;17.40;87.50;;;;;;5025802;28;20075;-68
2023/10/09 14:54:42;;;;;;;0.35;0.35;;;17.30;87.40;;;;;;5028566;28;20410;-69
2023/10/09 14:57:07;;;;;;;0.00;0.00;;;17.30;87.00;;;;;;5029539;28;20104;-69
2023/10/09 14:59:33;;;;;;;0.15;0.15;;;17.30;86.70;;;;;;5030831;28;20108;-71
2023/10/09 15:01:59;;;;;;;0.32;0.32;;;17.40;86.70;;;;;;5022384;28;20038;-70
2023/10/09 15:04:25;;;;;;;0.00;0.00;;;17.30;86.70;;;;;;5029242;28;20045;-69
2023/10/09 15:06:52;;;;;;;0.00;0.00;;;17.30;86.80;;;;;;5029852;28;20037;-70
2023/10/09 15:09:28;;;;;;;0.00;0.00;;;17.30;86.40;;;;;;5029116;28;20045;-70
2023/10/09 15:11:54;;;;;;;1.20;1.10;;;17.30;86.40;;;;;;5030652;28;20461;-68
2023/10/09 15:14:20;;;;;;;0.43;0.43;;;17.30;86.40;;;;;;5052830;23;20412;-68
2023/10/09 15:16:47;;;;;;;0.13;0.13;;;17.30;86.70;;;;;;5029957;28;20115;-69
2023/10/09 15:19:13;;;;;;;0.05;0.05;;;17.40;86.70;;;;;;5026479;28;20048;-70
2023/10/09 15:21:45;;;;;;;0.00;0.00;;;17.40;86.70;;;;;;5031468;28;20183;-70
2023/10/09 15:24:15;;;;;;;0.00;0.00;;;17.30;87.00;;;;;;5030639;28;20042;-70
2023/10/09 15:26:51;;;;;;;0.00;0.00;;;17.30;87.30;;;;;;5020014;28;20034;-65
2023/10/09 15:29:27;;;;;;;0.00;0.00;;;17.30;87.00;;;;;;5027180;28;20045;-68
2023/10/09 15:31:54;;;;;;;0.30;0.13;;;17.30;86.60;;;;;;5030167;28;20061;-68
2023/10/09 15:34:21;;;;;;;0.03;0.03;;;17.20;86.50;;;;;;5025698;28;20045;-68
2023/10/09 15:36:47;;;;;;;0.30;0.30;;;17.30;86.70;;;;;;5029333;28;20049;-71
2023/10/09 15:39:13;;;;;;;0.00;0.00;;;17.30;86.70;;;;;;5029354;28;20540;-68
2023/10/09 15:41:42;;;;;;;0.00;0.00;;;17.30;85.70;;;;;;5029369;28;20053;-68
2023/10/09 15:44:08;;;;;;;0.00;0.00;;;17.20;84.90;;;;;;5026653;28;20034;-69
2023/10/09 15:46:34;;;;;;;0.00;0.00;;;17.20;84.40;;;;;;5027173;28;20472;-67
2023/10/09 15:49:00;;;;;;;0.00;0.00;;;17.10;83.80;;;;;;5028906;28;20041;-68
2023/10/09 15:51:28;;;;;;;2.17;1.75;;;17.10;83.90;;;;;;5027131;28;20068;-68
2023/10/09 15:53:53;;;;;;;13.50;1.35;;;17.10;84.00;;;;;;5027300;28;21514;-68
2023/10/09 15:56:20;;;;;;;0.15;0.10;;;17.10;84.10;;;;;;5027388;28;20092;-67
2023/10/09 15:58:46;;;;;;;0.00;0.00;;;17.10;84.50;;;;;;5026612;28;20048;-70
2023/10/09 16:01:18;;;;;;;0.00;0.00;;;17.10;84.90;;;;;;5026911;28;20053;-70
2023/10/09 16:03:47;;;;;;;0.30;0.30;;;17.10;85.00;;;;;;5028775;28;20041;-69
2023/10/09 16:06:15;;;;;;;0.00;0.00;;;17.10;85.30;;;;;;5023036;28;20054;-69